createdAt,value
2017-06-01T00:00:26.495Z,94.50
2017-06-01T00:02:54.739Z,94.50
2017-06-01T00:05:22.944Z,94.60
2017-06-01T00:07:51.179Z,94.50
2017-06-01T00:10:19.394Z,94.40
2017-06-01T00:12:48.327Z,94.30
2017-06-01T00:15:16.530Z,94.00
2017-06-01T00:17:44.742Z,94.30
2017-06-01T00:20:13.019Z,94.40
2017-06-01T00:22:41.331Z,94.50
2017-06-01T00:25:09.544Z,94.60
2017-06-01T00:27:37.838Z,94.70
2017-06-01T00:30:06.066Z,94.70
2017-06-01T00:32:34.309Z,94.70
2017-06-01T00:35:02.564Z,94.70
2017-06-01T00:37:30.779Z,94.80
2017-06-01T00:39:58.987Z,94.80
2017-06-01T00:42:27.217Z,94.80
2017-06-01T00:44:55.437Z,94.90
2017-06-01T00:47:23.700Z,94.90
2017-06-01T00:49:51.903Z,95.00
2017-06-01T00:52:20.116Z,95.00
2017-06-01T00:54:48.378Z,95.10
2017-06-01T00:57:16.619Z,95.10
2017-06-01T00:59:44.898Z,95.20
2017-06-01T01:02:13.120Z,95.20
2017-06-01T01:04:41.322Z,95.50
2017-06-01T01:07:09.699Z,95.20
2017-06-01T01:09:38.011Z,95.20
2017-06-01T01:12:06.249Z,95.20
2017-06-01T01:14:34.439Z,95.20
2017-06-01T01:17:02.735Z,95.20
2017-06-01T01:19:30.959Z,95.20
2017-06-01T01:21:59.171Z,95.30
2017-06-01T01:24:27.410Z,95.30
2017-06-01T01:26:55.629Z,95.40
2017-06-01T01:29:23.974Z,95.40
2017-06-01T01:31:52.192Z,95.40
2017-06-01T01:34:20.403Z,95.50
2017-06-01T01:36:48.614Z,95.40
2017-06-01T01:39:16.841Z,95.50
2017-06-01T01:41:45.072Z,95.50
2017-06-01T01:44:13.340Z,95.60
2017-06-01T01:46:41.559Z,95.60
2017-06-01T01:49:09.807Z,95.60
2017-06-01T01:51:38.011Z,95.60
2017-06-01T01:54:06.238Z,95.60
2017-06-01T01:56:34.520Z,95.60
2017-06-01T01:59:02.795Z,95.60
2017-06-01T02:01:31.075Z,95.50
2017-06-01T02:03:59.343Z,95.50
2017-06-01T02:06:27.555Z,95.50
2017-06-01T02:08:55.792Z,95.60
2017-06-01T02:11:23.990Z,95.60
2017-06-01T02:13:52.199Z,95.90
2017-06-01T02:16:20.434Z,95.60
2017-06-01T02:18:48.663Z,95.50
2017-06-01T02:21:16.963Z,95.50
2017-06-01T02:23:45.187Z,95.60
2017-06-01T02:26:13.403Z,95.60
2017-06-01T02:28:41.630Z,95.60
2017-06-01T02:31:09.864Z,95.80
2017-06-01T02:33:38.078Z,95.80
2017-06-01T02:36:06.300Z,96.20
2017-06-01T02:38:34.520Z,95.80
2017-06-01T02:41:02.860Z,95.90
2017-06-01T02:43:31.066Z,96.40
2017-06-01T02:45:59.308Z,96.40
2017-06-01T02:48:27.710Z,96.50
2017-06-01T02:50:55.859Z,96.50
2017-06-01T02:53:24.133Z,96.60
2017-06-01T02:55:52.407Z,96.60
2017-06-01T02:58:20.699Z,96.60
2017-06-01T03:00:48.959Z,96.80
2017-06-01T03:03:17.161Z,96.80
2017-06-01T03:05:45.406Z,96.80
2017-06-01T03:08:13.683Z,96.80
2017-06-01T03:10:41.959Z,96.80
2017-06-01T03:13:10.176Z,96.90
2017-06-01T03:15:38.379Z,96.90
2017-06-01T03:18:06.612Z,96.90
2017-06-01T03:20:34.807Z,96.90
2017-06-01T03:23:03.108Z,96.90
2017-06-01T03:25:31.307Z,96.90
2017-06-01T03:27:59.533Z,96.80
2017-06-01T03:30:27.728Z,96.30
2017-06-01T03:32:56.022Z,96.20
2017-06-01T03:35:24.307Z,96.20
2017-06-01T03:37:52.511Z,96.20
2017-06-01T03:40:20.731Z,96.10
2017-06-01T03:42:48.954Z,96.10
2017-06-01T03:45:17.153Z,96.30
2017-06-01T03:47:45.475Z,96.00
2017-06-01T03:50:13.691Z,96.00
2017-06-01T03:52:41.918Z,96.10
2017-06-01T03:55:10.194Z,95.90
2017-06-01T03:57:38.510Z,96.00
2017-06-01T04:00:06.747Z,96.00
2017-06-01T04:02:35.038Z,95.70
2017-06-01T04:05:03.303Z,95.70
2017-06-01T04:07:31.511Z,95.60
2017-06-01T04:09:59.724Z,95.30
2017-06-01T04:12:27.939Z,95.40
2017-06-01T04:14:56.143Z,95.30
2017-06-01T04:17:24.445Z,95.10
2017-06-01T04:19:52.641Z,95.10
2017-06-01T04:22:20.859Z,94.90
2017-06-01T04:24:49.111Z,94.70
2017-06-01T04:27:17.320Z,94.60
2017-06-01T04:29:45.537Z,94.40
2017-06-01T04:32:13.816Z,94.50
2017-06-01T04:34:42.087Z,94.10
2017-06-01T04:37:10.363Z,94.40
2017-06-01T04:39:38.603Z,94.10
2017-06-01T04:42:06.824Z,94.10
2017-06-01T04:44:35.103Z,94.00
2017-06-01T04:47:03.367Z,93.80
2017-06-01T04:49:31.638Z,94.00
2017-06-01T04:51:59.923Z,93.70
2017-06-01T04:54:28.195Z,93.60
2017-06-01T04:56:56.567Z,93.60
2017-06-01T04:59:24.946Z,93.70
2017-06-01T05:01:53.155Z,93.50
2017-06-01T05:04:21.381Z,93.40
2017-06-01T05:06:49.688Z,93.20
2017-06-01T05:09:17.951Z,93.00
2017-06-01T05:11:46.160Z,93.20
2017-06-01T05:14:14.406Z,92.80
2017-06-01T05:16:42.665Z,92.90
2017-06-01T05:19:10.928Z,92.70
2017-06-01T05:21:39.303Z,92.90
2017-06-01T05:24:07.706Z,93.10
2017-06-01T05:26:36.075Z,92.70
2017-06-01T05:29:04.359Z,92.60
2017-06-01T05:31:32.627Z,92.70
2017-06-01T05:34:00.943Z,92.60
2017-06-01T05:36:29.194Z,92.40
2017-06-01T05:38:57.429Z,92.00
2017-06-01T05:41:25.744Z,91.90
2017-06-01T05:43:53.967Z,91.30
2017-06-01T05:46:22.172Z,92.00
2017-06-01T05:48:50.463Z,91.70
2017-06-01T05:51:18.739Z,91.30
2017-06-01T05:53:46.971Z,91.20
2017-06-01T05:56:15.207Z,91.60
2017-06-01T05:58:43.431Z,91.50
2017-06-01T06:01:11.660Z,91.60
2017-06-01T06:03:39.873Z,91.70
2017-06-01T06:06:08.200Z,91.90
2017-06-01T06:08:36.663Z,91.80
2017-06-01T06:11:04.940Z,91.50
2017-06-01T06:13:33.307Z,91.70
2017-06-01T06:16:01.515Z,91.80
2017-06-01T06:18:29.764Z,91.80
2017-06-01T06:20:57.226Z,91.80
2017-06-01T06:23:25.529Z,91.80
2017-06-01T06:25:53.816Z,91.90
2017-06-01T06:28:22.058Z,91.30
2017-06-01T06:30:50.393Z,91.20
2017-06-01T06:33:18.595Z,91.10
2017-06-01T06:35:46.811Z,91.00
2017-06-01T06:38:15.017Z,91.20
2017-06-01T06:40:43.322Z,91.10
2017-06-01T06:43:11.566Z,90.50
2017-06-01T06:45:39.833Z,90.50
2017-06-01T06:48:08.116Z,90.20
2017-06-01T06:50:36.316Z,90.00
2017-06-01T06:53:04.593Z,89.50
2017-06-01T06:55:32.796Z,89.20
2017-06-01T06:58:01.040Z,89.70
2017-06-01T07:01:02.667Z,89.80
2017-06-01T07:03:30.866Z,89.10
2017-06-01T07:05:59.156Z,88.30
2017-06-01T07:08:27.451Z,87.90
2017-06-01T07:10:55.815Z,89.30
2017-06-01T07:13:24.036Z,89.20
2017-06-01T07:15:52.253Z,87.80
2017-06-01T07:18:20.520Z,88.00
2017-06-01T07:20:48.876Z,88.10
2017-06-01T07:23:17.091Z,88.40
2017-06-01T07:25:45.351Z,87.60
2017-06-01T07:28:13.619Z,86.90
2017-06-01T07:30:41.936Z,86.70
2017-06-01T07:33:10.179Z,87.90
2017-06-01T07:35:38.495Z,88.20
2017-06-01T07:38:06.723Z,87.80
2017-06-01T07:40:34.936Z,87.10
2017-06-01T07:43:03.151Z,87.30
2017-06-01T07:45:31.408Z,86.80
2017-06-01T07:47:59.735Z,86.70
2017-06-01T07:50:28.011Z,87.00
2017-06-01T07:52:56.254Z,86.30
2017-06-01T07:55:24.502Z,84.80
2017-06-01T07:57:52.801Z,85.40
2017-06-01T08:00:21.034Z,85.70
2017-06-01T08:02:49.271Z,85.90
2017-06-01T08:05:17.563Z,85.10
2017-06-01T08:07:45.763Z,82.80
2017-06-01T08:10:13.975Z,83.90
2017-06-01T08:12:42.227Z,83.90
2017-06-01T08:15:10.447Z,83.50
2017-06-01T08:17:38.827Z,83.00
2017-06-01T08:20:07.116Z,82.80
2017-06-01T08:22:35.356Z,83.50
2017-06-01T08:25:03.602Z,83.60
2017-06-01T08:27:31.814Z,83.80
2017-06-01T08:30:00.039Z,82.60
2017-06-01T08:32:28.379Z,82.50
2017-06-01T08:34:56.627Z,81.40
2017-06-01T08:37:24.856Z,81.60
2017-06-01T08:39:53.091Z,81.80
2017-06-01T08:42:21.379Z,82.70
2017-06-01T08:44:49.601Z,82.10
2017-06-01T08:47:17.864Z,82.10
2017-06-01T08:49:46.085Z,81.40
2017-06-01T08:52:14.337Z,80.80
2017-06-01T08:54:42.549Z,80.30
2017-06-01T08:57:10.146Z,80.20
2017-06-01T08:59:38.372Z,79.00
2017-06-01T09:02:06.583Z,78.70
2017-06-01T09:04:34.800Z,79.30
2017-06-01T09:07:03.120Z,80.10
2017-06-01T09:09:31.375Z,81.30
2017-06-01T09:11:59.596Z,80.60
2017-06-01T09:14:27.828Z,80.90
2017-06-01T09:16:56.251Z,80.20
2017-06-01T09:19:24.479Z,77.60
2017-06-01T09:21:52.763Z,79.50
2017-06-01T09:24:21.059Z,80.70
2017-06-01T09:26:49.315Z,81.80
2017-06-01T09:29:17.559Z,78.50
2017-06-01T09:31:45.873Z,78.70
2017-06-01T09:34:14.139Z,76.30
2017-06-01T09:36:42.419Z,74.60
2017-06-01T09:39:10.631Z,75.60
2017-06-01T09:41:38.857Z,76.70
2017-06-01T09:44:07.062Z,77.60
2017-06-01T09:46:35.304Z,78.90
2017-06-01T09:49:03.523Z,78.60
2017-06-01T09:51:31.864Z,78.10
2017-06-01T09:54:00.066Z,77.00
2017-06-01T09:56:28.281Z,78.60
2017-06-01T09:58:56.587Z,78.00
2017-06-01T10:01:24.864Z,78.40
2017-06-01T10:03:53.091Z,79.80
2017-06-01T10:06:21.307Z,78.60
2017-06-01T10:08:49.508Z,78.80
2017-06-01T10:11:17.728Z,75.60
2017-06-01T10:13:46.036Z,75.80
2017-06-01T10:16:14.288Z,75.90
2017-06-01T10:18:42.487Z,76.40
2017-06-01T10:21:10.701Z,77.00
2017-06-01T10:23:38.937Z,76.80
2017-06-01T10:26:07.157Z,77.10
2017-06-01T10:28:35.371Z,77.60
2017-06-01T10:31:03.591Z,76.10
2017-06-01T10:33:31.852Z,76.80
2017-06-01T10:36:00.079Z,77.20
2017-06-01T10:38:28.286Z,75.70
2017-06-01T10:40:56.519Z,75.00
2017-06-01T10:43:24.850Z,75.40
2017-06-01T10:45:53.083Z,75.80
2017-06-01T10:48:21.299Z,76.90
2017-06-01T10:50:49.716Z,76.10
2017-06-01T10:53:17.927Z,76.00
2017-06-01T10:55:46.212Z,77.50
2017-06-01T10:58:14.441Z,77.50
2017-06-01T11:00:42.766Z,74.70
2017-06-01T11:03:10.972Z,75.80
2017-06-01T11:05:39.200Z,76.10
2017-06-01T11:08:07.423Z,76.40
2017-06-01T11:10:35.755Z,75.20
2017-06-01T11:13:03.985Z,74.50
2017-06-01T11:15:32.195Z,74.50
2017-06-01T11:18:00.415Z,75.40
2017-06-01T11:20:28.635Z,75.10
2017-06-01T11:22:56.883Z,74.00
2017-06-01T11:25:25.195Z,75.00
2017-06-01T11:27:53.424Z,72.10
2017-06-01T11:30:21.645Z,74.40
2017-06-01T11:32:50.027Z,75.00
2017-06-01T11:35:18.298Z,74.60
2017-06-01T11:37:46.687Z,72.70
2017-06-01T11:40:15.076Z,71.90
2017-06-01T11:42:43.331Z,72.80
2017-06-01T11:45:11.603Z,71.80
2017-06-01T11:47:39.867Z,72.20
2017-06-01T11:50:08.159Z,72.10
2017-06-01T11:52:36.411Z,73.40
2017-06-01T11:55:04.620Z,72.50
2017-06-01T11:57:32.843Z,70.10
2017-06-01T12:00:01.147Z,68.90
2017-06-01T12:02:28.622Z,68.90
2017-06-01T12:04:57.015Z,72.30
2017-06-01T12:07:25.375Z,69.80
2017-06-01T12:09:53.647Z,66.90
2017-06-01T12:12:21.913Z,69.10
2017-06-01T12:14:50.243Z,70.30
2017-06-01T12:17:18.547Z,71.90
2017-06-01T12:19:46.740Z,70.50
2017-06-01T12:22:14.956Z,69.20
2017-06-01T12:24:43.165Z,70.10
2017-06-01T12:27:11.389Z,68.50
2017-06-01T12:29:39.603Z,70.10
2017-06-01T12:32:07.911Z,71.50
2017-06-01T12:34:36.187Z,67.90
2017-06-01T12:37:04.476Z,68.60
2017-06-01T12:39:32.747Z,69.60
2017-06-01T12:42:01.093Z,69.50
2017-06-01T12:44:29.435Z,69.20
2017-06-01T12:46:57.643Z,68.10
2017-06-01T12:49:25.864Z,68.00
2017-06-01T12:51:54.126Z,65.80
2017-06-01T12:54:22.367Z,65.10
2017-06-01T12:56:50.633Z,65.50
2017-06-01T12:59:18.954Z,66.00
2017-06-01T13:01:47.189Z,66.10
2017-06-01T13:04:15.403Z,64.60
2017-06-01T13:06:43.687Z,64.30
2017-06-01T13:09:11.952Z,64.20
2017-06-01T13:11:40.255Z,63.90
2017-06-01T13:14:08.531Z,61.80
2017-06-01T13:16:36.777Z,63.10
2017-06-01T13:19:05.040Z,60.10
2017-06-01T13:21:33.266Z,62.20
2017-06-01T13:24:01.579Z,62.50
2017-06-01T13:26:29.796Z,59.60
2017-06-01T13:28:59.073Z,59.20
2017-06-01T13:31:27.306Z,57.70
2017-06-01T13:33:55.637Z,58.10
2017-06-01T13:36:23.898Z,59.90
2017-06-01T13:38:52.102Z,60.40
2017-06-01T13:41:20.377Z,58.80
2017-06-01T13:43:48.660Z,57.20
2017-06-01T13:46:16.878Z,56.10
2017-06-01T13:48:45.194Z,54.90
2017-06-01T13:51:13.504Z,51.10
2017-06-01T13:53:41.756Z,53.80
2017-06-01T13:56:10.006Z,56.30
2017-06-01T13:58:38.233Z,57.70
2017-06-01T14:01:06.454Z,58.10
2017-06-01T14:03:34.684Z,57.60
2017-06-01T14:06:02.903Z,57.90
2017-06-01T14:08:31.163Z,57.90
2017-06-01T14:10:59.455Z,56.60
2017-06-01T14:13:27.731Z,55.00
2017-06-01T14:15:56.007Z,53.80
2017-06-01T14:18:24.247Z,53.60
2017-06-01T14:20:52.544Z,53.70
2017-06-01T14:23:20.768Z,52.80
2017-06-01T14:25:48.979Z,48.70
2017-06-01T14:28:17.191Z,49.70
2017-06-01T14:30:45.432Z,49.40
2017-06-01T14:33:13.640Z,46.10
2017-06-01T14:35:41.883Z,47.10
2017-06-01T14:38:10.088Z,45.70
2017-06-01T14:40:38.299Z,44.50
2017-06-01T14:43:06.529Z,44.10
2017-06-01T14:45:34.726Z,45.50
2017-06-01T14:48:03.037Z,45.30
2017-06-01T14:50:31.230Z,48.30
2017-06-01T14:52:59.487Z,47.00
2017-06-01T14:55:27.862Z,47.20
2017-06-01T14:57:56.128Z,42.30
2017-06-01T15:00:24.335Z,47.80
2017-06-01T15:02:52.689Z,47.20
2017-06-01T15:05:20.892Z,45.60
2017-06-01T15:07:49.176Z,43.60
2017-06-01T15:10:17.579Z,44.70
2017-06-01T15:12:45.791Z,44.70
2017-06-01T15:15:13.994Z,43.80
2017-06-01T15:17:42.248Z,40.50
2017-06-01T15:20:10.452Z,40.90
2017-06-01T15:22:38.751Z,41.20
2017-06-01T15:25:06.984Z,41.60
2017-06-01T15:27:35.275Z,38.60
2017-06-01T15:30:03.684Z,35.70
2017-06-01T15:32:31.899Z,33.90
2017-06-01T15:35:00.199Z,34.40
2017-06-01T15:37:28.523Z,33.60
2017-06-01T15:39:56.729Z,32.80
2017-06-01T15:42:24.960Z,34.00
2017-06-01T15:44:53.219Z,35.80
2017-06-01T15:47:21.428Z,35.00
2017-06-01T15:49:49.639Z,33.20
2017-06-01T15:52:17.919Z,31.50
2017-06-01T15:54:46.199Z,33.80
2017-06-01T15:57:14.413Z,32.30
2017-06-01T15:59:42.740Z,33.80
2017-06-01T16:02:11.017Z,34.00
2017-06-01T16:04:39.315Z,31.70
2017-06-01T16:07:07.570Z,32.70
2017-06-01T16:09:35.779Z,33.40
2017-06-01T16:12:04.078Z,33.90
2017-06-01T16:14:32.407Z,32.40
2017-06-01T16:17:00.676Z,34.40
2017-06-01T16:19:28.932Z,33.80
2017-06-01T16:21:57.134Z,33.00
2017-06-01T16:24:25.401Z,32.30
2017-06-01T16:26:53.630Z,33.50
2017-06-01T16:29:21.838Z,35.60
2017-06-01T16:31:50.133Z,34.50
2017-06-01T16:34:18.408Z,36.90
2017-06-01T16:36:46.611Z,37.60
2017-06-01T16:39:14.863Z,38.30
2017-06-01T16:41:43.075Z,39.60
2017-06-01T16:44:11.371Z,38.60
2017-06-01T16:46:39.557Z,39.70
2017-06-01T16:49:07.852Z,40.60
2017-06-01T16:51:36.077Z,39.00
2017-06-01T16:54:04.287Z,40.80
2017-06-01T16:56:32.504Z,40.60
2017-06-01T16:59:00.712Z,40.80
2017-06-01T17:01:29.052Z,41.40
2017-06-01T17:03:57.366Z,42.40
2017-06-01T17:06:25.664Z,42.90
2017-06-01T17:08:53.878Z,42.70
2017-06-01T17:11:22.116Z,42.60
2017-06-01T17:13:50.326Z,42.00
2017-06-01T17:16:18.538Z,41.90
2017-06-01T17:18:46.776Z,42.10
2017-06-01T17:21:15.028Z,42.90
2017-06-01T17:23:43.245Z,43.20
2017-06-01T17:26:11.452Z,43.10
2017-06-01T17:28:39.647Z,42.00
2017-06-01T17:31:07.914Z,42.70
2017-06-01T17:33:36.152Z,44.20
2017-06-01T17:36:04.367Z,42.50
2017-06-01T17:38:32.634Z,40.60
2017-06-01T17:41:00.146Z,40.70
2017-06-01T17:43:28.430Z,44.40
2017-06-01T17:45:56.886Z,41.90
2017-06-01T17:48:25.126Z,42.00
2017-06-01T17:50:53.351Z,41.60
2017-06-01T17:53:21.597Z,42.50
2017-06-01T17:55:49.852Z,43.60
2017-06-01T17:58:18.058Z,45.30
2017-06-01T18:00:46.308Z,43.90
2017-06-01T18:03:14.523Z,42.20
2017-06-01T18:05:42.736Z,40.80
2017-06-01T18:08:10.192Z,40.70
2017-06-01T18:10:38.411Z,42.80
2017-06-01T18:13:06.646Z,42.90
2017-06-01T18:15:34.869Z,43.80
2017-06-01T18:18:03.125Z,44.70
2017-06-01T18:20:31.368Z,44.30
2017-06-01T18:22:59.588Z,47.00
2017-06-01T18:25:28.911Z,48.70
2017-06-01T18:27:57.135Z,48.10
2017-06-01T18:30:28.981Z,46.20
2017-06-01T18:32:57.263Z,47.70
2017-06-01T18:35:25.482Z,48.00
2017-06-01T18:37:53.721Z,48.10
2017-06-01T18:40:21.919Z,48.80
2017-06-01T18:42:50.168Z,50.00
2017-06-01T18:45:18.403Z,50.60
2017-06-01T18:47:46.695Z,51.20
2017-06-01T18:50:14.899Z,52.10
2017-06-01T18:52:43.121Z,52.40
2017-06-01T18:55:11.439Z,53.10
2017-06-01T18:57:39.675Z,55.00
2017-06-01T19:00:07.983Z,55.90
2017-06-01T19:02:36.278Z,56.10
2017-06-01T19:05:04.513Z,54.40
2017-06-01T19:07:32.753Z,54.30
2017-06-01T19:10:00.951Z,54.70
2017-06-01T19:12:29.263Z,55.50
2017-06-01T19:14:57.495Z,57.20
2017-06-01T19:17:25.706Z,58.90
2017-06-01T19:19:54.006Z,61.30
2017-06-01T19:22:22.249Z,62.70
2017-06-01T19:24:50.451Z,64.40
2017-06-01T19:27:18.715Z,65.60
2017-06-01T19:29:46.984Z,68.00
2017-06-01T19:32:15.201Z,68.70
2017-06-01T19:34:43.420Z,69.90
2017-06-01T19:37:11.645Z,70.90
2017-06-01T19:39:39.866Z,71.60
2017-06-01T19:42:08.156Z,72.10
2017-06-01T19:44:36.389Z,72.50
2017-06-01T19:47:04.702Z,73.20
2017-06-01T19:49:32.951Z,73.60
2017-06-01T19:52:01.163Z,74.10
2017-06-01T19:54:29.384Z,74.80
2017-06-01T19:56:57.614Z,75.80
2017-06-01T19:59:25.837Z,76.60
2017-06-01T20:01:54.151Z,77.20
2017-06-01T20:04:22.427Z,77.80
2017-06-01T20:06:50.639Z,78.10
2017-06-01T20:09:18.887Z,78.40
2017-06-01T20:11:47.112Z,78.70
2017-06-01T20:14:15.339Z,79.20
2017-06-01T20:16:43.596Z,79.70
2017-06-01T20:19:11.847Z,80.10
2017-06-01T20:21:40.055Z,80.40
2017-06-01T20:24:08.279Z,80.80
2017-06-01T20:26:36.696Z,81.40
2017-06-01T20:29:04.913Z,81.90
2017-06-01T20:31:33.170Z,82.50
2017-06-01T20:34:01.392Z,82.90
2017-06-01T20:36:29.651Z,83.60
2017-06-01T20:38:57.878Z,84.40
2017-06-01T20:41:26.108Z,84.80
2017-06-01T20:43:54.327Z,85.30
2017-06-01T20:46:22.610Z,85.50
2017-06-01T20:48:50.827Z,85.80
2017-06-01T20:51:19.063Z,86.20
2017-06-01T20:53:47.325Z,86.50
2017-06-01T20:56:15.617Z,86.80
2017-06-01T20:58:43.988Z,87.40
2017-06-01T21:01:12.245Z,87.60
2017-06-01T21:03:40.519Z,87.80
2017-06-01T21:06:08.976Z,88.70
2017-06-01T21:08:37.184Z,87.80
2017-06-01T21:11:05.436Z,88.20
2017-06-01T21:13:33.769Z,88.40
2017-06-01T21:16:01.976Z,88.90
2017-06-01T21:18:30.269Z,89.10
2017-06-01T21:20:58.487Z,89.30
2017-06-01T21:23:26.692Z,89.60
2017-06-01T21:25:55.011Z,89.80
2017-06-01T21:28:23.226Z,90.00
2017-06-01T21:30:51.443Z,90.10
2017-06-01T21:33:19.650Z,90.30
2017-06-01T21:35:48.017Z,90.40
2017-06-01T21:38:16.247Z,90.40
2017-06-01T21:40:44.487Z,90.40
2017-06-01T21:43:12.715Z,90.50
2017-06-01T21:45:40.920Z,90.70
2017-06-01T21:48:09.129Z,90.80
2017-06-01T21:50:37.442Z,90.90
2017-06-01T21:53:05.663Z,90.90
2017-06-01T21:55:34.014Z,90.90
2017-06-01T21:58:02.303Z,90.90
2017-06-01T22:00:30.515Z,91.20
2017-06-01T22:02:58.719Z,91.30
2017-06-01T22:05:26.940Z,91.30
2017-06-01T22:07:55.176Z,91.50
2017-06-01T22:10:23.600Z,91.50
2017-06-01T22:12:51.830Z,91.60
2017-06-01T22:15:20.150Z,91.70
2017-06-01T22:17:48.385Z,91.80
2017-06-01T22:20:16.607Z,92.00
2017-06-01T22:22:44.965Z,92.10
2017-06-01T22:25:13.322Z,92.10
2017-06-01T22:27:41.585Z,92.20
2017-06-01T22:30:09.802Z,92.30
2017-06-01T22:32:38.048Z,92.40
2017-06-01T22:35:06.497Z,92.50
2017-06-01T22:37:34.803Z,92.60
2017-06-01T22:40:03.051Z,92.70
2017-06-01T22:42:31.289Z,92.70
2017-06-01T22:44:59.619Z,92.70
2017-06-01T22:47:27.832Z,92.70
2017-06-01T22:49:56.048Z,92.70
2017-06-01T22:52:24.282Z,92.70
2017-06-01T22:54:52.512Z,92.70
2017-06-01T22:57:20.745Z,92.80
2017-06-01T22:59:48.950Z,92.90
2017-06-01T23:02:17.232Z,92.90
2017-06-01T23:04:45.530Z,93.00
2017-06-01T23:07:13.791Z,93.10
2017-06-01T23:09:42.011Z,93.10
2017-06-01T23:12:10.257Z,93.20
2017-06-01T23:14:38.509Z,93.20
2017-06-01T23:17:06.739Z,92.90
2017-06-01T23:19:34.973Z,92.80
2017-06-01T23:22:03.265Z,93.00
2017-06-01T23:24:31.528Z,93.00
2017-06-01T23:26:59.792Z,92.90
2017-06-01T23:29:28.021Z,92.90
2017-06-01T23:31:56.339Z,93.10
2017-06-01T23:34:24.548Z,93.30
2017-06-01T23:36:52.914Z,93.60
2017-06-01T23:39:21.143Z,93.90
2017-06-01T23:41:49.365Z,93.80
2017-06-01T23:44:17.609Z,93.70
2017-06-01T23:46:45.825Z,93.80
2017-06-01T23:49:14.068Z,93.90
2017-06-01T23:51:42.327Z,94.00
2017-06-01T23:54:10.560Z,94.00
2017-06-01T23:56:38.780Z,94.10
2017-06-01T23:59:07.001Z,94.20
